sensor_id;sensor_type;location;lat;lon;timestamp;temperature;humidity
74968;SHT30;63523;51.880;12.630;2024-03-02T00:02:10;7.19;84.87
74968;SHT30;63523;51.880;12.630;2024-03-02T00:04:36;7.16;84.97
74968;SHT30;63523;51.880;12.630;2024-03-02T00:07:02;7.14;85.07
74968;SHT30;63523;51.880;12.630;2024-03-02T00:09:29;7.16;84.82
74968;SHT30;63523;51.880;12.630;2024-03-02T00:11:54;7.12;84.85
74968;SHT30;63523;51.880;12.630;2024-03-02T00:14:19;7.12;85.04
74968;SHT30;63523;51.880;12.630;2024-03-02T00:16:44;7.08;85.19
74968;SHT30;63523;51.880;12.630;2024-03-02T00:19:10;7.09;85.20
74968;SHT30;63523;51.880;12.630;2024-03-02T00:21:35;7.05;85.25
74968;SHT30;63523;51.880;12.630;2024-03-02T00:24:07;7.03;85.34
74968;SHT30;63523;51.880;12.630;2024-03-02T00:26:44;7.00;85.54
74968;SHT30;63523;51.880;12.630;2024-03-02T00:29:15;6.96;85.55
74968;SHT30;63523;51.880;12.630;2024-03-02T00:31:41;6.96;85.71
74968;SHT30;63523;51.880;12.630;2024-03-02T00:34:07;6.93;85.70
74968;SHT30;63523;51.880;12.630;2024-03-02T00:36:33;6.93;85.75
74968;SHT30;63523;51.880;12.630;2024-03-02T00:38:58;6.90;85.82
74968;SHT30;63523;51.880;12.630;2024-03-02T00:41:29;6.88;86.00
74968;SHT30;63523;51.880;12.630;2024-03-02T00:46:20;6.91;86.16
74968;SHT30;63523;51.880;12.630;2024-03-02T00:48:57;6.90;86.18
74968;SHT30;63523;51.880;12.630;2024-03-02T00:51:24;6.87;86.25
74968;SHT30;63523;51.880;12.630;2024-03-02T00:53:51;6.88;86.52
74968;SHT30;63523;51.880;12.630;2024-03-02T00:56:17;6.87;86.74
74968;SHT30;63523;51.880;12.630;2024-03-02T00:58:43;6.86;86.74
74968;SHT30;63523;51.880;12.630;2024-03-02T01:01:08;6.87;86.92
74968;SHT30;63523;51.880;12.630;2024-03-02T01:03:34;6.88;86.99
74968;SHT30;63523;51.880;12.630;2024-03-02T01:06:00;6.87;87.14
74968;SHT30;63523;51.880;12.630;2024-03-02T01:08:25;6.88;87.26
74968;SHT30;63523;51.880;12.630;2024-03-02T01:10:51;6.87;87.21
74968;SHT30;63523;51.880;12.630;2024-03-02T01:13:17;6.88;87.22
74968;SHT30;63523;51.880;12.630;2024-03-02T01:15:42;6.90;87.37
74968;SHT30;63523;51.880;12.630;2024-03-02T01:18:07;6.90;87.46
74968;SHT30;63523;51.880;12.630;2024-03-02T01:20:33;6.90;87.29
74968;SHT30;63523;51.880;12.630;2024-03-02T01:22:58;6.91;87.39
74968;SHT30;63523;51.880;12.630;2024-03-02T01:25:23;6.91;87.50
74968;SHT30;63523;51.880;12.630;2024-03-02T01:27:48;6.93;87.37
74968;SHT30;63523;51.880;12.630;2024-03-02T01:30:14;6.90;87.30
74968;SHT30;63523;51.880;12.630;2024-03-02T01:32:39;6.88;87.44
74968;SHT30;63523;51.880;12.630;2024-03-02T01:35:05;6.88;87.55
74968;SHT30;63523;51.880;12.630;2024-03-02T01:37:30;6.91;87.58
74968;SHT30;63523;51.880;12.630;2024-03-02T01:39:56;6.94;87.71
74968;SHT30;63523;51.880;12.630;2024-03-02T01:42:21;6.94;87.89
74968;SHT30;63523;51.880;12.630;2024-03-02T01:44:47;7.01;87.95
74968;SHT30;63523;51.880;12.630;2024-03-02T01:47:12;6.98;87.87
74968;SHT30;63523;51.880;12.630;2024-03-02T01:49:37;7.01;87.81
74968;SHT30;63523;51.880;12.630;2024-03-02T01:52:04;7.03;87.84
74968;SHT30;63523;51.880;12.630;2024-03-02T01:54:29;7.03;87.77
74968;SHT30;63523;51.880;12.630;2024-03-02T01:56:54;7.04;87.73
74968;SHT30;63523;51.880;12.630;2024-03-02T01:59:20;7.07;87.76
74968;SHT30;63523;51.880;12.630;2024-03-02T02:01:45;7.09;88.23
74968;SHT30;63523;51.880;12.630;2024-03-02T02:04:11;7.15;88.48
74968;SHT30;63523;51.880;12.630;2024-03-02T02:06:36;7.24;88.59
74968;SHT30;63523;51.880;12.630;2024-03-02T02:09:01;7.24;88.48
74968;SHT30;63523;51.880;12.630;2024-03-02T02:11:27;7.28;88.43
74968;SHT30;63523;51.880;12.630;2024-03-02T02:13:52;7.34;88.58
74968;SHT30;63523;51.880;12.630;2024-03-02T02:16:20;7.38;88.42
74968;SHT30;63523;51.880;12.630;2024-03-02T02:18:45;7.41;88.27
74968;SHT30;63523;51.880;12.630;2024-03-02T02:21:11;7.39;88.19
74968;SHT30;63523;51.880;12.630;2024-03-02T02:23:36;7.38;88.00
74968;SHT30;63523;51.880;12.630;2024-03-02T02:26:02;7.36;88.09
74968;SHT30;63523;51.880;12.630;2024-03-02T02:28:28;7.38;88.31
74968;SHT30;63523;51.880;12.630;2024-03-02T02:30:54;7.43;88.35
74968;SHT30;63523;51.880;12.630;2024-03-02T02:33:21;7.48;88.43
74968;SHT30;63523;51.880;12.630;2024-03-02T02:35:46;7.51;88.48
74968;SHT30;63523;51.880;12.630;2024-03-02T02:38:11;7.56;88.41
74968;SHT30;63523;51.880;12.630;2024-03-02T02:40:37;7.62;88.27
74968;SHT30;63523;51.880;12.630;2024-03-02T02:43:02;7.67;88.14
74968;SHT30;63523;51.880;12.630;2024-03-02T02:45:27;7.69;87.93
74968;SHT30;63523;51.880;12.630;2024-03-02T02:47:53;7.70;87.76
74968;SHT30;63523;51.880;12.630;2024-03-02T02:50:18;7.73;87.60
74968;SHT30;63523;51.880;12.630;2024-03-02T02:52:43;7.73;87.47
74968;SHT30;63523;51.880;12.630;2024-03-02T02:55:10;7.76;87.39
74968;SHT30;63523;51.880;12.630;2024-03-02T02:57:37;7.74;87.22
74968;SHT30;63523;51.880;12.630;2024-03-02T03:00:08;7.76;87.07
74968;SHT30;63523;51.880;12.630;2024-03-02T03:02:40;7.74;86.98
74968;SHT30;63523;51.880;12.630;2024-03-02T03:05:07;7.74;87.13
74968;SHT30;63523;51.880;12.630;2024-03-02T03:07:33;7.70;87.06
74968;SHT30;63523;51.880;12.630;2024-03-02T03:09:59;7.67;87.00
74968;SHT30;63523;51.880;12.630;2024-03-02T03:12:24;7.63;87.12
74968;SHT30;63523;51.880;12.630;2024-03-02T03:14:50;7.59;87.28
74968;SHT30;63523;51.880;12.630;2024-03-02T03:17:15;7.60;87.35
74968;SHT30;63523;51.880;12.630;2024-03-02T03:19:40;7.56;87.35
74968;SHT30;63523;51.880;12.630;2024-03-02T03:22:05;7.59;87.37
74968;SHT30;63523;51.880;12.630;2024-03-02T03:24:31;7.56;87.40
74968;SHT30;63523;51.880;12.630;2024-03-02T03:26:58;7.55;87.50
74968;SHT30;63523;51.880;12.630;2024-03-02T03:29:23;7.52;87.51
74968;SHT30;63523;51.880;12.630;2024-03-02T03:31:48;7.49;87.58
74968;SHT30;63523;51.880;12.630;2024-03-02T03:34:13;7.49;87.62
74968;SHT30;63523;51.880;12.630;2024-03-02T03:36:42;7.52;87.55
74968;SHT30;63523;51.880;12.630;2024-03-02T03:39:07;7.45;87.51
74968;SHT30;63523;51.880;12.630;2024-03-02T03:41:33;7.42;87.58
74968;SHT30;63523;51.880;12.630;2024-03-02T03:43:58;7.42;87.71
74968;SHT30;63523;51.880;12.630;2024-03-02T03:46:23;7.42;87.73
74968;SHT30;63523;51.880;12.630;2024-03-02T03:48:48;7.38;87.78
74968;SHT30;63523;51.880;12.630;2024-03-02T03:51:14;7.35;87.79
74968;SHT30;63523;51.880;12.630;2024-03-02T03:53:39;7.34;87.89
74968;SHT30;63523;51.880;12.630;2024-03-02T03:56:05;7.31;87.73
74968;SHT30;63523;51.880;12.630;2024-03-02T03:58:30;7.28;87.90
74968;SHT30;63523;51.880;12.630;2024-03-02T04:00:55;7.24;87.89
74968;SHT30;63523;51.880;12.630;2024-03-02T04:03:21;7.21;88.08
74968;SHT30;63523;51.880;12.630;2024-03-02T04:05:46;7.18;88.19
74968;SHT30;63523;51.880;12.630;2024-03-02T04:08:11;7.16;88.35
74968;SHT30;63523;51.880;12.630;2024-03-02T04:10:36;7.19;88.33
74968;SHT30;63523;51.880;12.630;2024-03-02T04:13:02;7.16;88.23
74968;SHT30;63523;51.880;12.630;2024-03-02T04:15:27;7.14;88.19
74968;SHT30;63523;51.880;12.630;2024-03-02T04:17:52;7.15;88.29
74968;SHT30;63523;51.880;12.630;2024-03-02T04:20:18;7.15;88.47
74968;SHT30;63523;51.880;12.630;2024-03-02T04:22:43;7.15;88.41
74968;SHT30;63523;51.880;12.630;2024-03-02T04:25:08;7.21;88.24
74968;SHT30;63523;51.880;12.630;2024-03-02T04:27:34;7.21;88.29
74968;SHT30;63523;51.880;12.630;2024-03-02T04:29:59;7.24;88.23
74968;SHT30;63523;51.880;12.630;2024-03-02T04:32:26;7.25;88.19
74968;SHT30;63523;51.880;12.630;2024-03-02T04:34:51;7.24;88.30
74968;SHT30;63523;51.880;12.630;2024-03-02T04:37:16;7.25;88.49
74968;SHT30;63523;51.880;12.630;2024-03-02T04:39:42;7.28;88.40
74968;SHT30;63523;51.880;12.630;2024-03-02T04:42:07;7.28;88.35
74968;SHT30;63523;51.880;12.630;2024-03-02T04:44:32;7.31;88.39
74968;SHT30;63523;51.880;12.630;2024-03-02T04:46:57;7.29;88.26
74968;SHT30;63523;51.880;12.630;2024-03-02T04:49:23;7.31;88.28
74968;SHT30;63523;51.880;12.630;2024-03-02T04:51:48;7.29;88.42
74968;SHT30;63523;51.880;12.630;2024-03-02T04:54:14;7.25;88.45
74968;SHT30;63523;51.880;12.630;2024-03-02T04:56:39;7.24;88.44
74968;SHT30;63523;51.880;12.630;2024-03-02T04:59:15;7.25;88.33
74968;SHT30;63523;51.880;12.630;2024-03-02T05:01:40;7.16;88.19
74968;SHT30;63523;51.880;12.630;2024-03-02T05:04:05;7.15;88.21
74968;SHT30;63523;51.880;12.630;2024-03-02T05:06:30;7.11;88.17
74968;SHT30;63523;51.880;12.630;2024-03-02T05:08:56;7.03;88.05
74968;SHT30;63523;51.880;12.630;2024-03-02T05:11:21;6.98;88.11
74968;SHT30;63523;51.880;12.630;2024-03-02T05:14:05;6.93;88.13
74968;SHT30;63523;51.880;12.630;2024-03-02T05:16:36;6.88;88.05
74968;SHT30;63523;51.880;12.630;2024-03-02T05:19:03;6.84;88.19
74968;SHT30;63523;51.880;12.630;2024-03-02T05:21:31;6.77;88.20
74968;SHT30;63523;51.880;12.630;2024-03-02T05:23:56;6.73;88.19
74968;SHT30;63523;51.880;12.630;2024-03-02T05:26:22;6.68;88.06
74968;SHT30;63523;51.880;12.630;2024-03-02T05:28:47;6.62;88.19
74968;SHT30;63523;51.880;12.630;2024-03-02T05:31:15;6.59;88.12
74968;SHT30;63523;51.880;12.630;2024-03-02T05:33:40;6.56;88.15
74968;SHT30;63523;51.880;12.630;2024-03-02T05:36:06;6.54;87.79
74968;SHT30;63523;51.880;12.630;2024-03-02T05:38:34;6.41;87.67
74968;SHT30;63523;51.880;12.630;2024-03-02T05:40:59;6.29;87.67
74968;SHT30;63523;51.880;12.630;2024-03-02T05:43:24;6.26;87.86
74968;SHT30;63523;51.880;12.630;2024-03-02T05:45:50;6.26;88.14
74968;SHT30;63523;51.880;12.630;2024-03-02T05:48:15;6.29;88.22
74968;SHT30;63523;51.880;12.630;2024-03-02T05:50:40;6.25;88.04
74968;SHT30;63523;51.880;12.630;2024-03-02T05:53:06;6.21;87.90
74968;SHT30;63523;51.880;12.630;2024-03-02T05:55:31;6.21;88.06
74968;SHT30;63523;51.880;12.630;2024-03-02T05:57:56;6.20;88.26
74968;SHT30;63523;51.880;12.630;2024-03-02T06:00:27;6.24;88.39
74968;SHT30;63523;51.880;12.630;2024-03-02T06:02:52;6.21;88.51
74968;SHT30;63523;51.880;12.630;2024-03-02T06:05:18;6.28;88.89
74968;SHT30;63523;51.880;12.630;2024-03-02T06:07:44;6.36;89.12
74968;SHT30;63523;51.880;12.630;2024-03-02T06:10:09;6.48;89.32
74968;SHT30;63523;51.880;12.630;2024-03-02T06:12:37;6.57;89.44
74968;SHT30;63523;51.880;12.630;2024-03-02T06:15:02;6.66;89.51
74968;SHT30;63523;51.880;12.630;2024-03-02T06:17:28;6.73;89.48
74968;SHT30;63523;51.880;12.630;2024-03-02T06:19:54;6.80;89.59
74968;SHT30;63523;51.880;12.630;2024-03-02T06:22:19;6.91;89.47
74968;SHT30;63523;51.880;12.630;2024-03-02T06:24:44;6.97;89.41
74968;SHT30;63523;51.880;12.630;2024-03-02T06:27:09;7.07;89.34
74968;SHT30;63523;51.880;12.630;2024-03-02T06:29:35;7.08;89.21
74968;SHT30;63523;51.880;12.630;2024-03-02T06:32:00;7.12;88.96
74968;SHT30;63523;51.880;12.630;2024-03-02T06:34:26;7.12;88.66
74968;SHT30;63523;51.880;12.630;2024-03-02T06:36:51;7.14;88.73
74968;SHT30;63523;51.880;12.630;2024-03-02T06:39:17;7.18;88.66
74968;SHT30;63523;51.880;12.630;2024-03-02T06:41:42;7.26;88.64
74968;SHT30;63523;51.880;12.630;2024-03-02T06:44:08;7.29;88.31
74968;SHT30;63523;51.880;12.630;2024-03-02T06:46:33;7.41;88.59
74968;SHT30;63523;51.880;12.630;2024-03-02T06:48:58;7.58;88.66
74968;SHT30;63523;51.880;12.630;2024-03-02T06:51:23;7.77;88.21
74968;SHT30;63523;51.880;12.630;2024-03-02T06:53:49;7.94;87.66
74968;SHT30;63523;51.880;12.630;2024-03-02T06:56:14;7.99;87.08
74968;SHT30;63523;51.880;12.630;2024-03-02T06:58:39;7.97;86.82
74968;SHT30;63523;51.880;12.630;2024-03-02T07:01:04;8.01;86.57
74968;SHT30;63523;51.880;12.630;2024-03-02T07:03:30;7.98;86.81
74968;SHT30;63523;51.880;12.630;2024-03-02T07:05:55;7.97;86.50
74968;SHT30;63523;51.880;12.630;2024-03-02T07:08:20;7.97;86.72
74968;SHT30;63523;51.880;12.630;2024-03-02T07:10:46;8.07;86.27
74968;SHT30;63523;51.880;12.630;2024-03-02T07:13:12;8.08;85.56
74968;SHT30;63523;51.880;12.630;2024-03-02T07:15:38;8.01;85.59
74968;SHT30;63523;51.880;12.630;2024-03-02T07:18:32;8.01;86.12
74968;SHT30;63523;51.880;12.630;2024-03-02T07:20:58;7.98;86.38
74968;SHT30;63523;51.880;12.630;2024-03-02T07:23:26;8.04;86.63
74968;SHT30;63523;51.880;12.630;2024-03-02T07:25:53;8.08;86.79
74968;SHT30;63523;51.880;12.630;2024-03-02T07:28:21;8.11;86.98
74968;SHT30;63523;51.880;12.630;2024-03-02T07:30:46;8.24;86.93
74968;SHT30;63523;51.880;12.630;2024-03-02T07:33:12;8.28;86.43
74968;SHT30;63523;51.880;12.630;2024-03-02T07:35:37;8.29;86.34
74968;SHT30;63523;51.880;12.630;2024-03-02T07:38:02;8.32;86.03
74968;SHT30;63523;51.880;12.630;2024-03-02T07:40:28;8.31;85.90
74968;SHT30;63523;51.880;12.630;2024-03-02T07:42:53;8.28;85.59
74968;SHT30;63523;51.880;12.630;2024-03-02T07:45:18;8.26;85.55
74968;SHT30;63523;51.880;12.630;2024-03-02T07:47:44;8.25;85.28
74968;SHT30;63523;51.880;12.630;2024-03-02T07:50:09;8.20;85.40
74968;SHT30;63523;51.880;12.630;2024-03-02T07:52:35;8.20;85.45
74968;SHT30;63523;51.880;12.630;2024-03-02T07:55:00;8.22;85.71
74968;SHT30;63523;51.880;12.630;2024-03-02T07:57:26;8.22;85.33
74968;SHT30;63523;51.880;12.630;2024-03-02T07:59:52;8.24;85.72
74968;SHT30;63523;51.880;12.630;2024-03-02T08:02:17;8.28;85.97
74968;SHT30;63523;51.880;12.630;2024-03-02T08:04:43;8.36;85.49
74968;SHT30;63523;51.880;12.630;2024-03-02T08:07:08;8.45;85.48
74968;SHT30;63523;51.880;12.630;2024-03-02T08:09:34;8.49;85.42
74968;SHT30;63523;51.880;12.630;2024-03-02T08:11:59;8.54;85.10
74968;SHT30;63523;51.880;12.630;2024-03-02T08:14:25;8.56;84.77
74968;SHT30;63523;51.880;12.630;2024-03-02T08:16:50;8.57;84.74
74968;SHT30;63523;51.880;12.630;2024-03-02T08:19:15;8.62;84.92
74968;SHT30;63523;51.880;12.630;2024-03-02T08:21:41;8.64;84.51
74968;SHT30;63523;51.880;12.630;2024-03-02T08:24:07;8.67;84.53
74968;SHT30;63523;51.880;12.630;2024-03-02T08:26:33;8.77;84.01
74968;SHT30;63523;51.880;12.630;2024-03-02T08:28:58;8.77;84.05
74968;SHT30;63523;51.880;12.630;2024-03-02T08:31:24;8.81;84.28
74968;SHT30;63523;51.880;12.630;2024-03-02T08:33:49;8.87;84.03
74968;SHT30;63523;51.880;12.630;2024-03-02T08:36:14;8.88;84.42
74968;SHT30;63523;51.880;12.630;2024-03-02T08:38:40;8.87;84.13
74968;SHT30;63523;51.880;12.630;2024-03-02T08:41:06;9.00;84.25
74968;SHT30;63523;51.880;12.630;2024-03-02T08:43:32;9.04;83.98
74968;SHT30;63523;51.880;12.630;2024-03-02T08:45:58;9.15;84.23
74968;SHT30;63523;51.880;12.630;2024-03-02T08:48:23;9.24;84.04
74968;SHT30;63523;51.880;12.630;2024-03-02T08:50:48;9.36;84.15
74968;SHT30;63523;51.880;12.630;2024-03-02T08:53:13;9.44;83.88
74968;SHT30;63523;51.880;12.630;2024-03-02T08:55:43;9.61;83.06
74968;SHT30;63523;51.880;12.630;2024-03-02T08:58:08;9.66;83.25
74968;SHT30;63523;51.880;12.630;2024-03-02T09:00:33;9.73;82.30
74968;SHT30;63523;51.880;12.630;2024-03-02T09:02:59;9.76;82.24
74968;SHT30;63523;51.880;12.630;2024-03-02T09:05:24;9.81;82.61
74968;SHT30;63523;51.880;12.630;2024-03-02T09:07:49;9.95;81.75
74968;SHT30;63523;51.880;12.630;2024-03-02T09:10:15;9.97;81.07
74968;SHT30;63523;51.880;12.630;2024-03-02T09:12:40;9.95;81.17
74968;SHT30;63523;51.880;12.630;2024-03-02T09:15:06;9.95;81.11
74968;SHT30;63523;51.880;12.630;2024-03-02T09:17:31;10.05;81.38
74968;SHT30;63523;51.880;12.630;2024-03-02T09:19:57;10.22;81.36
74968;SHT30;63523;51.880;12.630;2024-03-02T09:22:22;10.36;81.18
74968;SHT30;63523;51.880;12.630;2024-03-02T09:24:48;10.26;79.68
74968;SHT30;63523;51.880;12.630;2024-03-02T09:27:13;10.42;81.37
74968;SHT30;63523;51.880;12.630;2024-03-02T09:29:39;10.52;80.27
74968;SHT30;63523;51.880;12.630;2024-03-02T09:32:05;10.53;79.15
74968;SHT30;63523;51.880;12.630;2024-03-02T09:34:31;10.45;78.75
74968;SHT30;63523;51.880;12.630;2024-03-02T09:36:57;10.32;79.24
74968;SHT30;63523;51.880;12.630;2024-03-02T09:39:22;10.39;80.08
74968;SHT30;63523;51.880;12.630;2024-03-02T09:41:48;10.41;79.04
74968;SHT30;63523;51.880;12.630;2024-03-02T09:44:14;10.55;79.60
74968;SHT30;63523;51.880;12.630;2024-03-02T09:46:39;10.61;79.07
74968;SHT30;63523;51.880;12.630;2024-03-02T09:49:04;10.83;79.67
74968;SHT30;63523;51.880;12.630;2024-03-02T09:51:31;10.84;78.41
74968;SHT30;63523;51.880;12.630;2024-03-02T09:53:56;10.94;78.30
74968;SHT30;63523;51.880;12.630;2024-03-02T09:56:22;11.03;77.88
74968;SHT30;63523;51.880;12.630;2024-03-02T09:58:47;11.16;78.68
74968;SHT30;63523;51.880;12.630;2024-03-02T10:01:13;11.25;77.23
74968;SHT30;63523;51.880;12.630;2024-03-02T10:03:38;11.36;77.92
74968;SHT30;63523;51.880;12.630;2024-03-02T10:06:20;11.58;77.63
74968;SHT30;63523;51.880;12.630;2024-03-02T10:08:45;11.59;76.53
74968;SHT30;63523;51.880;12.630;2024-03-02T10:11:11;11.70;76.35
74968;SHT30;63523;51.880;12.630;2024-03-02T10:13:48;11.74;76.41
74968;SHT30;63523;51.880;12.630;2024-03-02T10:16:14;11.77;76.83
74968;SHT30;63523;51.880;12.630;2024-03-02T10:18:39;11.84;76.94
74968;SHT30;63523;51.880;12.630;2024-03-02T10:21:14;11.87;76.53
74968;SHT30;63523;51.880;12.630;2024-03-02T10:23:40;11.88;75.91
74968;SHT30;63523;51.880;12.630;2024-03-02T10:26:17;11.86;75.32
74968;SHT30;63523;51.880;12.630;2024-03-02T10:28:47;11.78;75.33
74968;SHT30;63523;51.880;12.630;2024-03-02T10:31:17;11.90;76.30
74968;SHT30;63523;51.880;12.630;2024-03-02T10:33:42;12.04;76.02
74968;SHT30;63523;51.880;12.630;2024-03-02T10:36:08;12.04;75.14
74968;SHT30;63523;51.880;12.630;2024-03-02T10:38:33;12.14;75.77
74968;SHT30;63523;51.880;12.630;2024-03-02T10:40:59;12.32;75.23
74968;SHT30;63523;51.880;12.630;2024-03-02T10:43:25;12.60;74.15
74968;SHT30;63523;51.880;12.630;2024-03-02T10:45:52;12.88;74.79
74968;SHT30;63523;51.880;12.630;2024-03-02T10:48:17;13.15;73.62
74968;SHT30;63523;51.880;12.630;2024-03-02T10:50:43;13.34;72.17
74968;SHT30;63523;51.880;12.630;2024-03-02T10:53:08;13.42;71.67
74968;SHT30;63523;51.880;12.630;2024-03-02T10:55:33;13.55;72.23
74968;SHT30;63523;51.880;12.630;2024-03-02T10:58:00;13.73;70.22
74968;SHT30;63523;51.880;12.630;2024-03-02T11:00:30;13.77;71.35
74968;SHT30;63523;51.880;12.630;2024-03-02T11:03:03;13.88;71.79
74968;SHT30;63523;51.880;12.630;2024-03-02T11:05:36;13.94;70.46
74968;SHT30;63523;51.880;12.630;2024-03-02T11:08:06;14.12;69.96
74968;SHT30;63523;51.880;12.630;2024-03-02T11:10:37;14.29;68.72
74968;SHT30;63523;51.880;12.630;2024-03-02T11:13:06;14.28;68.50
74968;SHT30;63523;51.880;12.630;2024-03-02T11:15:34;14.20;68.81
74968;SHT30;63523;51.880;12.630;2024-03-02T11:18:03;14.32;67.45
74968;SHT30;63523;51.880;12.630;2024-03-02T11:20:31;14.18;68.42
74968;SHT30;63523;51.880;12.630;2024-03-02T11:22:56;14.25;68.13
74968;SHT30;63523;51.880;12.630;2024-03-02T11:25:26;14.33;68.61
74968;SHT30;63523;51.880;12.630;2024-03-02T11:32:59;14.08;66.43
74968;SHT30;63523;51.880;12.630;2024-03-02T11:35:25;13.94;68.56
74968;SHT30;63523;51.880;12.630;2024-03-02T11:37:54;13.98;68.04
74968;SHT30;63523;51.880;12.630;2024-03-02T11:40:22;14.04;68.39
74968;SHT30;63523;51.880;12.630;2024-03-02T11:42:48;14.08;68.01
74968;SHT30;63523;51.880;12.630;2024-03-02T11:45:16;14.03;67.31
74968;SHT30;63523;51.880;12.630;2024-03-02T11:47:46;14.00;65.98
74968;SHT30;63523;51.880;12.630;2024-03-02T11:50:15;13.87;67.12
74968;SHT30;63523;51.880;12.630;2024-03-02T11:52:41;13.87;67.91
74968;SHT30;63523;51.880;12.630;2024-03-02T11:55:08;13.88;67.49
74968;SHT30;63523;51.880;12.630;2024-03-02T11:57:35;14.08;66.13
74968;SHT30;63523;51.880;12.630;2024-03-02T12:00:00;14.17;65.17
74968;SHT30;63523;51.880;12.630;2024-03-02T12:02:28;14.11;65.42
74968;SHT30;63523;51.880;12.630;2024-03-02T12:04:54;14.05;65.45
74968;SHT30;63523;51.880;12.630;2024-03-02T12:07:22;14.08;67.25
74968;SHT30;63523;51.880;12.630;2024-03-02T12:09:48;14.21;65.19
74968;SHT30;63523;51.880;12.630;2024-03-02T12:12:13;14.33;64.08
74968;SHT30;63523;51.880;12.630;2024-03-02T12:14:50;14.39;63.63
74968;SHT30;63523;51.880;12.630;2024-03-02T12:17:16;14.33;63.04
74968;SHT30;63523;51.880;12.630;2024-03-02T12:19:41;14.38;64.00
74968;SHT30;63523;51.880;12.630;2024-03-02T12:22:06;14.48;63.35
74968;SHT30;63523;51.880;12.630;2024-03-02T12:24:31;14.73;61.96
74968;SHT30;63523;51.880;12.630;2024-03-02T12:26:57;14.84;61.50
74968;SHT30;63523;51.880;12.630;2024-03-02T12:29:22;14.98;63.10
74968;SHT30;63523;51.880;12.630;2024-03-02T12:31:50;15.08;61.66
74968;SHT30;63523;51.880;12.630;2024-03-02T12:34:17;15.17;60.25
74968;SHT30;63523;51.880;12.630;2024-03-02T12:36:43;15.10;59.31
74968;SHT30;63523;51.880;12.630;2024-03-02T12:39:09;15.14;60.24
74968;SHT30;63523;51.880;12.630;2024-03-02T12:41:37;15.00;60.79
74968;SHT30;63523;51.880;12.630;2024-03-02T12:44:03;15.00;62.39
74968;SHT30;63523;51.880;12.630;2024-03-02T12:46:28;14.95;62.66
74968;SHT30;63523;51.880;12.630;2024-03-02T12:48:54;14.84;61.80
74968;SHT30;63523;51.880;12.630;2024-03-02T12:51:19;14.69;62.57
74968;SHT30;63523;51.880;12.630;2024-03-02T12:53:44;14.63;62.75
74968;SHT30;63523;51.880;12.630;2024-03-02T12:56:10;14.70;62.60
74968;SHT30;63523;51.880;12.630;2024-03-02T12:58:39;14.87;62.92
74968;SHT30;63523;51.880;12.630;2024-03-02T13:01:07;14.69;61.92
74968;SHT30;63523;51.880;12.630;2024-03-02T13:03:38;14.79;62.87
74968;SHT30;63523;51.880;12.630;2024-03-02T13:06:05;14.93;63.10
74968;SHT30;63523;51.880;12.630;2024-03-02T13:08:30;15.20;62.17
74968;SHT30;63523;51.880;12.630;2024-03-02T13:10:56;15.34;62.13
74968;SHT30;63523;51.880;12.630;2024-03-02T13:13:21;15.32;61.49
74968;SHT30;63523;51.880;12.630;2024-03-02T13:15:48;15.24;60.95
74968;SHT30;63523;51.880;12.630;2024-03-02T13:18:13;15.21;62.05
74968;SHT30;63523;51.880;12.630;2024-03-02T13:20:38;15.25;62.37
74968;SHT30;63523;51.880;12.630;2024-03-02T13:23:05;15.24;61.89
74968;SHT30;63523;51.880;12.630;2024-03-02T13:25:30;15.21;61.37
74968;SHT30;63523;51.880;12.630;2024-03-02T13:27:56;15.40;60.69
74968;SHT30;63523;51.880;12.630;2024-03-02T13:30:22;15.48;60.05
74968;SHT30;63523;51.880;12.630;2024-03-02T13:32:47;15.45;60.06
74968;SHT30;63523;51.880;12.630;2024-03-02T13:35:12;15.43;59.71
74968;SHT30;63523;51.880;12.630;2024-03-02T13:37:38;15.52;59.58
74968;SHT30;63523;51.880;12.630;2024-03-02T13:40:03;15.48;60.49
74968;SHT30;63523;51.880;12.630;2024-03-02T13:42:30;15.39;60.20
74968;SHT30;63523;51.880;12.630;2024-03-02T13:44:55;15.40;60.15
74968;SHT30;63523;51.880;12.630;2024-03-02T13:47:20;15.27;59.91
74968;SHT30;63523;51.880;12.630;2024-03-02T13:49:46;15.20;59.42
74968;SHT30;63523;51.880;12.630;2024-03-02T13:52:14;15.11;60.45
74968;SHT30;63523;51.880;12.630;2024-03-02T13:54:40;15.24;59.99
74968;SHT30;63523;51.880;12.630;2024-03-02T13:57:07;15.21;60.38
74968;SHT30;63523;51.880;12.630;2024-03-02T13:59:33;15.15;61.15
74968;SHT30;63523;51.880;12.630;2024-03-02T14:02:00;15.12;59.76
74968;SHT30;63523;51.880;12.630;2024-03-02T14:04:25;15.10;60.04
74968;SHT30;63523;51.880;12.630;2024-03-02T14:06:50;15.27;60.19
74968;SHT30;63523;51.880;12.630;2024-03-02T14:09:16;15.42;60.34
74968;SHT30;63523;51.880;12.630;2024-03-02T14:11:41;15.52;57.81
74968;SHT30;63523;51.880;12.630;2024-03-02T14:14:06;15.50;58.15
74968;SHT30;63523;51.880;12.630;2024-03-02T14:16:31;15.40;58.13
74968;SHT30;63523;51.880;12.630;2024-03-02T14:18:57;15.32;59.42
74968;SHT30;63523;51.880;12.630;2024-03-02T14:21:24;15.31;58.60
74968;SHT30;63523;51.880;12.630;2024-03-02T14:23:49;15.22;58.37
74968;SHT30;63523;51.880;12.630;2024-03-02T14:26:15;15.04;59.24
74968;SHT30;63523;51.880;12.630;2024-03-02T14:28:40;14.98;59.39
74968;SHT30;63523;51.880;12.630;2024-03-02T14:31:06;15.10;59.70
74968;SHT30;63523;51.880;12.630;2024-03-02T14:33:31;15.08;59.98
74968;SHT30;63523;51.880;12.630;2024-03-02T14:35:57;15.01;59.59
74968;SHT30;63523;51.880;12.630;2024-03-02T14:38:22;14.97;61.11
74968;SHT30;63523;51.880;12.630;2024-03-02T14:40:47;15.02;60.55
74968;SHT30;63523;51.880;12.630;2024-03-02T14:43:13;15.01;60.73
74968;SHT30;63523;51.880;12.630;2024-03-02T14:45:38;14.94;61.23
74968;SHT30;63523;51.880;12.630;2024-03-02T14:48:04;14.95;60.36
74968;SHT30;63523;51.880;12.630;2024-03-02T14:50:29;14.85;60.44
74968;SHT30;63523;51.880;12.630;2024-03-02T14:52:54;14.67;60.89
74968;SHT30;63523;51.880;12.630;2024-03-02T14:55:22;14.53;61.87
74968;SHT30;63523;51.880;12.630;2024-03-02T14:57:48;14.49;61.63
74968;SHT30;63523;51.880;12.630;2024-03-02T15:00:14;14.42;61.79
74968;SHT30;63523;51.880;12.630;2024-03-02T15:02:39;14.32;62.53
74968;SHT30;63523;51.880;12.630;2024-03-02T15:05:05;14.25;63.09
74968;SHT30;63523;51.880;12.630;2024-03-02T15:07:33;14.14;62.63
74968;SHT30;63523;51.880;12.630;2024-03-02T15:09:58;14.12;63.00
74968;SHT30;63523;51.880;12.630;2024-03-02T15:12:23;14.01;64.17
74968;SHT30;63523;51.880;12.630;2024-03-02T15:14:49;14.11;62.87
74968;SHT30;63523;51.880;12.630;2024-03-02T15:17:14;14.15;62.98
74968;SHT30;63523;51.880;12.630;2024-03-02T15:19:41;14.10;63.03
74968;SHT30;63523;51.880;12.630;2024-03-02T15:22:07;14.08;62.75
74968;SHT30;63523;51.880;12.630;2024-03-02T15:24:33;14.11;63.27
74968;SHT30;63523;51.880;12.630;2024-03-02T15:26:58;14.03;63.38